Flight Track Log - Related Links

Times and Time Zones

All times are in EDT time to prevent confusion due to time zone crossing. See the UAL1248 flight status page for this flight to view local times or setup timezone preferences in your user account.

Time Position Orientation Groundspeed Altitude Reporting Facility
EDT Latitude Longitude Course Direction KTS MPH feet Rate Location/Type
Thu 07:15:47 AM 27.9990 -82.5280 359° North 181 208 700  Level FlightAware ADS-B
Thu 07:16:08 AM 28.0180 -82.5300 355° North 200 230 1,400 1,773 Climbing FlightAware ADS-B
Thu 07:16:31 AM 28.0410 -82.5310 358° North 225 259 2,000 1,814 Climbing FlightAware ADS-B
Thu 07:16:51 AM 28.0640 -82.5320 358° North 243 280 2,700 2,286 Climbing FlightAware ADS-B
Thu 07:17:13 AM 28.0900 -82.5340 356° North 260 299 3,600 2,429 Climbing FlightAware ADS-B
Thu 07:17:33 AM 28.1120 -82.5350 358° North 267 307 4,400 2,700 Climbing FlightAware ADS-B
Thu 07:17:53 AM 28.1400 -82.5380 355° North 277 319 5,400 3,000 Climbing FlightAware ADS-B
Thu 07:18:17 AM 28.1710 -82.5410 355° North 277 319 6,600 2,857 Climbing FlightAware ADS-B
Thu 07:18:35 AM 28.1940 -82.5440 353° North 284 327 7,400 2,700 Climbing FlightAware ADS-B
Thu 07:18:57 AM 28.2230 -82.5460 357° North 287 330 8,400 2,857 Climbing FlightAware ADS-B
Thu 07:19:17 AM 28.2500 -82.5480 356° North 287 330 9,400 2,250 Climbing FlightAware ADS-B
Thu 07:19:53 AM 28.2980 -82.5530 355° North 304 350 10,500 1,437 Climbing FlightAware ADS-B
Thu 07:20:28 AM 28.3510 -82.5580 355° North 339 390 11,100 1,324 Climbing FlightAware ADS-B
Thu 07:21:01 AM 28.4060 -82.5630 355° North 360 414 12,000 1,970 Climbing FlightAware ADS-B
Thu 07:21:35 AM 28.4620 -82.5690 355° North 362 417 13,300 2,083 Climbing FlightAware ADS-B
Thu 07:22:13 AM 28.5260 -82.5750 355° North 373 429 14,500 1,946 Climbing FlightAware ADS-B
Thu 07:22:49 AM 28.5900 -82.5810 355° North 381 438 15,700 1,944 Climbing FlightAware ADS-B
Thu 07:23:24 AM 28.6520 -82.5870 355° North 387 445 16,800 1,791 Climbing FlightAware ADS-B
Thu 07:23:56 AM 28.7100 -82.5940 354° North 394 453 17,700 2,000 Climbing FlightAware ADS-B
Thu 07:24:33 AM 28.7770 -82.6030 353° North 393 452 19,100 2,027 Climbing FlightAware ADS-B
Thu 07:25:10 AM 28.8430 -82.6130 352° North 395 455 20,200 1,739 Climbing FlightAware ADS-B
Thu 07:25:42 AM 28.9020 -82.6210 353° North 400 460 21,100 1,612 Climbing FlightAware ADS-B
Thu 07:26:17 AM 28.9670 -82.6300 353° North 407 468 22,000 1,417 Climbing FlightAware ADS-B
Thu 07:26:54 AM 29.0380 -82.6400 353° North 414 476 22,800 1,233 Climbing FlightAware ADS-B
Thu 07:27:30 AM 29.1070 -82.6500 353° North 423 487 23,500 1,130 Climbing FlightAware ADS-B
Thu 07:28:03 AM 29.1720 -82.6590 353° North 433 498 24,100 1,075 Climbing FlightAware ADS-B
Thu 07:28:37 AM 29.2390 -82.6680 353° North 440 506 24,700 1,114 Climbing FlightAware ADS-B
Thu 07:29:13 AM 29.3130 -82.6790 353° North 445 512 25,400 1,324 Climbing FlightAware ADS-B
Thu 07:29:45 AM 29.3800 -82.6880 353° North 447 514 26,200 1,317 Climbing FlightAware ADS-B
Thu 07:30:35 AM 29.4780 -82.6930 357° North 453 521 27,200 1,187 Climbing FlightAware ADS-B
Thu 07:31:16 AM 29.5700 -82.6920 North 459 528 28,000 1,068 Climbing FlightAware ADS-B
Thu 07:31:48 AM 29.6354 -82.6920 360° North 464 534 28,500 892 Climbing FlightAware ADS-B
Thu 07:32:30 AM 29.7236 -82.6914 360° North 470 541 29,100 1,032 Climbing FlightAware ADS-B
Thu 07:33:21 AM 29.8433 -82.6906 360° North 472 543 30,100 1,175 Climbing FlightAware ADS-B
Thu 07:34:07 AM 29.9430 -82.6900 360° North 469 540 31,000 1,226 Climbing FlightAware ADS-B
Thu 07:34:54 AM 30.0439 -82.6895 360° North 465 535 32,000 1,271 Climbing FlightAware ADS-B
Thu 07:35:32 AM 30.1260 -82.6890 360° North 462 532 32,800 1,154 Climbing FlightAware ADS-B
Thu 07:36:12 AM 30.2070 -82.6880 North 458 527 33,500 1,050 Climbing FlightAware ADS-B
Thu 07:36:52 AM 30.2950 -82.6880 360° North 456 525 34,200 1,082 Climbing FlightAware ADS-B
Thu 07:37:13 AM 30.3364 -82.6876 360° North 454 522 34,600 545 Climbing FlightAware ADS-B
Thu 07:38:20 AM 30.4810 -82.6850 North 457 526 35,000 279 Climbing FlightAware ADS-B
Thu 07:38:39 AM 30.5205 -82.6773 North 464 534 35,000  Level FlightAware ADS-B
Thu 07:39:28 AM 30.6200 -82.6330 21° North 469 540 35,000  Level FlightAware ADS-B
Thu 07:40:03 AM 30.6890 -82.5990 23° Northeast 468 539 35,000  Level FlightAware ADS-B
Thu 07:40:37 AM 30.7590 -82.5640 23° Northeast 469 540 35,000  Level FlightAware ADS-B
Thu 07:41:15 AM 30.8320 -82.5280 23° Northeast 469 540 35,000  Level FlightAware ADS-B
Thu 07:41:45 AM 30.8900 -82.5000 23° Northeast 470 541 35,000  Level FlightAware ADS-B
Thu 07:42:24 AM 30.9680 -82.4610 23° Northeast 469 540 35,000  Level FlightAware ADS-B
Thu 07:43:00 AM 31.0440 -82.4240 23° Northeast 468 539 35,000  Level FlightAware ADS-B
Thu 07:43:30 AM 31.1040 -82.3950 22° Northeast 470 541 35,000  Level FlightAware ADS-B
Thu 07:44:03 AM 31.1680 -82.3640 23° Northeast 470 541 35,000  Level FlightAware ADS-B
Thu 07:44:52 AM 31.2620 -82.3190 22° Northeast 470 541 35,000  Level FlightAware ADS-B
Thu 07:45:24 AM 31.3300 -82.2800 26° Northeast 474 545 35,000  Level FlightAware ADS-B
Thu 07:45:58 AM 31.3990 -82.2390 27° Northeast 474 545 35,000  Level FlightAware ADS-B
Thu 07:46:37 AM 31.4750 -82.1950 26° Northeast 474 545 35,000  Level FlightAware ADS-B
Thu 07:47:10 AM 31.5400 -82.1570 26° Northeast 474 545 35,000  Level FlightAware ADS-B
Thu 07:47:46 AM 31.6080 -82.1170 27° Northeast 474 545 35,000  Level FlightAware ADS-B
Thu 07:48:26 AM 31.6900 -82.0690 26° Northeast 474 545 35,000  Level FlightAware ADS-B
Thu 07:49:03 AM 31.7610 -82.0270 27° Northeast 475 547 35,000  Level FlightAware ADS-B
Thu 07:49:39 AM 31.8310 -81.9860 26° Northeast 476 548 35,000  Level FlightAware ADS-B
Thu 07:50:12 AM 31.8990 -81.9460 27° Northeast 477 549 35,000  Level FlightAware ADS-B
Thu 07:50:48 AM 31.9690 -81.9040 27° Northeast 478 550 35,000  Level FlightAware ADS-B
Thu 07:51:21 AM 32.0320 -81.8670 26° Northeast 477 549 35,000  Level FlightAware ADS-B
Thu 07:51:56 AM 32.1030 -81.8250 27° Northeast 476 548 35,000  Level FlightAware ADS-B
Thu 07:52:30 AM 32.1700 -81.7850 27° Northeast 477 549 35,000  Level FlightAware ADS-B
Thu 07:53:09 AM 32.2470 -81.7390 27° Northeast 476 548 35,000  Level FlightAware ADS-B
Thu 07:53:42 AM 32.3120 -81.7010 26° Northeast 476 548 35,000  Level FlightAware ADS-B
Thu 07:54:15 AM 32.3760 -81.6630 27° Northeast 476 548 35,000  Level FlightAware ADS-B
Thu 07:54:54 AM 32.4530 -81.6160 27° Northeast 476 548 35,000  Level FlightAware ADS-B
Thu 07:55:30 AM 32.5250 -81.5740 26° Northeast 476 548 35,000  Level FlightAware ADS-B
Thu 07:56:03 AM 32.5890 -81.5350 27° Northeast 477 549 35,000  Level FlightAware ADS-B
Thu 07:56:39 AM 32.6580 -81.4890 29° Northeast 480 552 35,000  Level FlightAware ADS-B
Thu 07:57:10 AM 32.7170 -81.4470 31° Northeast 480 552 35,000  Level FlightAware ADS-B
Thu 07:57:45 AM 32.7840 -81.3990 31° Northeast 479 551 35,000  Level FlightAware ADS-B
Thu 07:58:23 AM 32.8570 -81.3480 30° Northeast 478 550 35,000  Level FlightAware ADS-B
Thu 07:58:58 AM 32.9250 -81.3010 30° Northeast 478 550 35,000  Level FlightAware ADS-B
Thu 07:59:35 AM 32.9930 -81.2520 31° Northeast 478 550 35,000  Level FlightAware ADS-B
Thu 08:00:05 AM 33.0530 -81.2110 30° Northeast 478 550 35,000  Level FlightAware ADS-B
Thu 08:00:35 AM 33.1100 -81.1700 31° Northeast 478 550 35,000  Level FlightAware ADS-B
Thu 08:01:10 AM 33.1750 -81.1240 31° Northeast 478 550 35,000  Level FlightAware ADS-B
Thu 08:01:47 AM 33.2470 -81.0730 31° Northeast 479 551 35,000  Level FlightAware ADS-B
Thu 08:02:23 AM 33.3160 -81.0240 31° Northeast 480 552 35,000  Level FlightAware ADS-B
Thu 08:02:58 AM 33.3820 -80.9760 31° Northeast 481 554 35,000  Level FlightAware ADS-B
Thu 08:03:31 AM 33.4450 -80.9310 31° Northeast 481 554 35,000  Level FlightAware ADS-B
Thu 08:04:06 AM 33.5110 -80.8840 31° Northeast 483 556 35,000  Level FlightAware ADS-B
Thu 08:04:43 AM 33.5830 -80.8330 31° Northeast 483 556 35,000  Level FlightAware ADS-B
Thu 08:05:16 AM 33.6450 -80.7870 32° Northeast 483 556 35,000  Level FlightAware ADS-B
Thu 08:05:53 AM 33.7160 -80.7370 30° Northeast 484 557 35,000  Level FlightAware ADS-B
Thu 08:06:28 AM 33.7850 -80.6870 31° Northeast 485 558 35,000  Level FlightAware ADS-B
Thu 08:07:01 AM 33.8490 -80.6410 31° Northeast 485 558 35,000  Level FlightAware ADS-B
Thu 08:07:36 AM 33.9150 -80.5920 32° Northeast 486 559 35,000  Level FlightAware ADS-B
Thu 08:08:13 AM 33.9850 -80.5420 31° Northeast 485 558 35,000  Level FlightAware ADS-B
Thu 08:08:45 AM 34.0490 -80.4950 31° Northeast 486 559 35,000  Level FlightAware ADS-B
Thu 08:09:21 AM 34.1160 -80.4460 31° Northeast 486 559 35,000  Level FlightAware ADS-B
Thu 08:09:57 AM 34.1860 -80.3950 31° Northeast 486 559 35,000  Level FlightAware ADS-B
Thu 08:10:33 AM 34.2570 -80.3440 31° Northeast 486 559 35,000  Level FlightAware ADS-B
Thu 08:10:57 AM 34.3030 -80.3100 31° Northeast 486 559 35,000  Level FlightAware ADS-B
Thu 08:11:09 AM 34.3240 -80.2940 32° Northeast 486 559 35,000  Level FlightAware ADS-B
Thu 08:12:14 AM 34.4430 -80.2070 31° Northeast 486 559 35,000  Level FlightAware ADS-B
Thu 08:12:59 AM 34.5360 -80.1380 31° Northeast 485 558 35,000  Level FlightAware ADS-B
Thu 08:13:44 AM 34.6190 -80.0770 31° Northeast 485 558 35,000  Level FlightAware ADS-B
Thu 08:14:42 AM 34.7200 -80.0020 31° Northeast 485 558 35,000  Level FlightAware ADS-B
Thu 08:15:33 AM 34.8250 -79.9240 31° Northeast 488 562 35,000  Level FlightAware ADS-B
Thu 08:16:12 AM 34.8890 -79.8760 32° Northeast 488 562 35,000  Level FlightAware ADS-B
Thu 08:16:48 AM 34.9470 -79.8310 32° Northeast 488 562 35,000  Level FlightAware ADS-B
Thu 08:17:24 AM 35.0060 -79.7860 32° Northeast 488 562 35,000  Level FlightAware ADS-B
Thu 08:18:01 AM 35.0660 -79.7400 32° Northeast 488 562 35,000  Level FlightAware ADS-B
Thu 08:18:35 AM 35.1810 -79.6580 30° Northeast 492 566 35,000  Level FlightAware ADS-B
Thu 08:19:20 AM 35.2670 -79.5930 32° Northeast 492 566 35,000  Level FlightAware ADS-B
Thu 08:19:55 AM 35.3330 -79.5430 32° Northeast 492 566 35,000  Level FlightAware ADS-B
Thu 08:20:35 AM 35.4090 -79.4860 31° Northeast 493 567 35,000  Level FlightAware ADS-B
Thu 08:21:05 AM 35.4660 -79.4430 32° Northeast 493 567 35,000  Level FlightAware ADS-B
Thu 08:21:45 AM 35.5490 -79.3790 32° Northeast 494 568 35,000  Level FlightAware ADS-B
Thu 08:22:16 AM 35.6030 -79.3390 31° Northeast 494 568 35,000  Level FlightAware ADS-B
Thu 08:22:51 AM 35.6780 -79.2820 32° Northeast 493 567 35,000  Level FlightAware ADS-B
Thu 08:23:26 AM 35.7460 -79.2290 32° Northeast 492 566 35,000  Level FlightAware ADS-B
Thu 08:24:02 AM 35.8140 -79.1770 32° Northeast 490 564 35,000  Level FlightAware ADS-B
Thu 08:24:36 AM 35.8810 -79.1260 32° Northeast 489 563 35,000  Level FlightAware ADS-B
Thu 08:25:11 AM 35.9470 -79.0750 32° Northeast 489 563 35,000  Level FlightAware ADS-B
Thu 08:25:46 AM 36.0140 -79.0230 32° Northeast 481 554 35,000  Level FlightAware ADS-B
Thu 08:26:16 AM 36.0730 -78.9780 32° Northeast 482 555 35,000  Level FlightAware ADS-B
Thu 08:26:56 AM 36.1480 -78.9200 32° Northeast 481 554 35,000  Level FlightAware ADS-B
Thu 08:27:31 AM 36.2150 -78.8680 32° Northeast 479 551 35,000  Level FlightAware ADS-B
Thu 08:28:06 AM 36.2830 -78.8160 32° Northeast 479 551 35,000  Level FlightAware ADS-B
Thu 08:28:41 AM 36.3490 -78.7640 32° Northeast 479 551 35,000  Level FlightAware ADS-B
Thu 08:29:20 AM 36.4270 -78.7030 32° Northeast 484 557 35,000  Level FlightAware ADS-B
Thu 08:29:52 AM 36.4870 -78.6560 32° Northeast 483 556 35,000  Level FlightAware ADS-B
Thu 08:30:30 AM 36.5580 -78.6010 32° Northeast 484 557 35,000  Level FlightAware ADS-B
Thu 08:31:10 AM 36.6340 -78.5410 32° Northeast 484 557 35,000  Level FlightAware ADS-B
Thu 08:31:55 AM 36.7120 -78.4800 32° Northeast 486 559 35,000  Level FlightAware ADS-B
Thu 08:32:37 AM 36.7950 -78.4140 32° Northeast 481 554 35,000  Level FlightAware ADS-B
Thu 08:33:16 AM 36.8570 -78.3640 33° Northeast 481 554 35,000  Level FlightAware ADS-B
Thu 08:33:52 AM 36.9140 -78.3170 33° Northeast 481 554 35,000  Level FlightAware ADS-B
Thu 08:34:28 AM 36.9710 -78.2710 33° Northeast 481 554 35,000  Level FlightAware ADS-B
Thu 08:35:05 AM 37.0300 -78.2230 33° Northeast 481 554 35,000  Level FlightAware ADS-B
Thu 08:35:42 AM 37.0890 -78.1760 32° Northeast 481 554 35,000  Level FlightAware ADS-B
Thu 08:36:16 AM 37.2110 -78.0840 31° Northeast 478 550 35,000  Level FlightAware ADS-B
Thu 08:36:51 AM 37.2790 -78.0290 33° Northeast 479 551 35,000  Level FlightAware ADS-B
Thu 08:37:30 AM 37.3560 -77.9670 33° Northeast 487 560 35,000  Level FlightAware ADS-B
Thu 08:38:02 AM 37.4170 -77.9180 33° Northeast 487 560 35,000  Level FlightAware ADS-B
Thu 08:38:38 AM 37.4840 -77.8640 33° Northeast 487 560 35,000  Level FlightAware ADS-B
Thu 08:39:12 AM 37.5480 -77.8100 34° Northeast 491 565 35,000  Level FlightAware ADS-B
Thu 08:39:48 AM 37.6160 -77.7490 35° Northeast 492 566 35,000  Level FlightAware ADS-B
Thu 08:40:24 AM 37.6800 -77.6910 36° Northeast 494 568 35,000  Level FlightAware ADS-B
Thu 08:41:00 AM 37.7500 -77.6280 35° Northeast 492 566 35,000  Level FlightAware ADS-B
Thu 08:41:32 AM 37.8090 -77.5740 36° Northeast 492 566 35,000  Level FlightAware ADS-B
Thu 08:42:08 AM 37.8760 -77.5130 36° Northeast 491 565 35,000  Level FlightAware ADS-B
Thu 08:42:44 AM 37.9410 -77.4540 36° Northeast 490 564 35,000  Level FlightAware ADS-B
Thu 08:43:17 AM 38.0000 -77.3990 36° Northeast 490 564 35,000  Level FlightAware ADS-B
Thu 08:43:52 AM 38.0660 -77.3390 36° Northeast 489 563 35,000  Level FlightAware ADS-B
Thu 08:44:29 AM 38.1320 -77.2780 36° Northeast 488 562 35,000  Level FlightAware ADS-B
Thu 08:45:04 AM 38.1940 -77.2210 36° Northeast 486 559 35,000  Level FlightAware ADS-B
Thu 08:45:38 AM 38.2590 -77.1610 36° Northeast 485 558 35,000  Level FlightAware ADS-B
Thu 08:46:13 AM 38.3210 -77.1030 36° Northeast 485 558 35,000  Level FlightAware ADS-B
Thu 08:46:50 AM 38.3910 -77.0390 36° Northeast 485 558 35,000  Level FlightAware ADS-B
Thu 08:47:22 AM 38.4470 -76.9870 36° Northeast 485 558 35,000  Level FlightAware ADS-B
Thu 08:47:58 AM 38.5090 -76.9290 36° Northeast 485 558 35,000  Level FlightAware ADS-B
Thu 08:48:34 AM 38.5780 -76.8650 36° Northeast 487 560 35,000  Level FlightAware ADS-B
Thu 08:49:06 AM 38.6360 -76.8110 36° Northeast 487 560 35,000  Level FlightAware ADS-B
Thu 08:49:44 AM 38.7050 -76.7450 37° Northeast 491 565 35,000  Level FlightAware ADS-B
Thu 08:50:17 AM 38.7610 -76.6820 41° Northeast 496 571 35,000  Level FlightAware ADS-B
Thu 08:50:52 AM 38.8210 -76.6120 42° Northeast 497 572 35,000  Level FlightAware ADS-B
Thu 08:51:29 AM 38.8820 -76.5410 42° Northeast 499 574 35,000 -88 Level FlightAware ADS-B
Thu 08:52:00 AM 38.9380 -76.4760 42° Northeast 496 571 34,900 -1,826 Descending FlightAware ADS-B
Thu 08:52:38 AM 39.0030 -76.4010 42° Northeast 505 581 32,900 -2,919 Descending FlightAware ADS-B
Thu 08:53:14 AM 39.0660 -76.3280 42° Northeast 506 582 31,300 -2,486 Descending FlightAware ADS-B
Thu 08:53:48 AM 39.1240 -76.2600 42° Northeast 502 578 30,000 -2,314 Descending FlightAware ADS-B
Thu 08:54:24 AM 39.1850 -76.1900 42° Northeast 496 571 28,600 -2,250 Descending FlightAware ADS-B
Thu 08:55:00 AM 39.2460 -76.1180 42° Northeast 489 563 27,300 -1,477 Descending FlightAware ADS-B
Thu 08:55:29 AM 39.2935 -76.0624 42° Northeast 479 551 27,000 -627 Descending FlightAware ADS-B (KSYR)
Thu 08:56:07 AM 39.3200 -76.0316 42° Northeast 476 548 26,600 -783 Descending FlightAware ADS-B (KSYR)
Thu 08:56:38 AM 39.4070 -75.9291 42° Northeast 470 541 26,100 -1,015 Descending FlightAware ADS-B (KSYR)
Thu 08:57:12 AM 39.4612 -75.8647 42° Northeast 467 537 25,500 -1,040 Descending FlightAware ADS-B (KSYR)
Thu 08:57:53 AM 39.5250 -75.7900 42° Northeast 461 531 24,800 -1,200 Descending FlightAware ADS-B
Thu 08:58:27 AM 39.5780 -75.7260 43° Northeast 446 513 24,000 -2,057 Descending FlightAware ADS-B
Thu 08:59:03 AM 39.6340 -75.6600 42° Northeast 447 514 22,400 -2,522 Descending FlightAware ADS-B
Thu 08:59:36 AM 39.6830 -75.6010 43° Northeast 445 512 21,100 -2,760 Descending FlightAware ADS-B
Thu 08:59:53 AM 39.7242 -75.5516 43° Northeast 440 506 20,100 -2,375 Descending FlightAware ADS-B
Thu 09:00:24 AM 39.7697 -75.4966 43° Northeast 431 496 19,200 -1,839 Descending FlightAware ADS-B
Thu 09:00:55 AM 39.8137 -75.4435 43° Northeast 425 489 18,200 -1,944 Descending FlightAware ADS-B
Thu 09:01:35 AM 39.8714 -75.3740 43° Northeast 414 476 16,900 -1,899 Descending FlightAware ADS-B
Thu 09:02:14 AM 39.9220 -75.3126 43° Northeast 405 466 15,700 -1,870 Descending FlightAware ADS-B
Thu 09:02:52 AM 39.9769 -75.2457 43° Northeast 398 458 14,500 -1,618 Descending FlightAware ADS-B
Thu 09:03:43 AM 40.0300 -75.1810 43° Northeast 389 448 13,300 -1,636 Descending FlightAware ADS-B
Thu 09:04:20 AM 40.0790 -75.1220 43° Northeast 381 438 12,100 -1,826 Descending FlightAware ADS-B
Thu 09:04:52 AM 40.1200 -75.0720 43° Northeast 372 428 11,200 -1,662 Descending FlightAware ADS-B
Thu 09:05:25 AM 40.1590 -75.0240 43° Northeast 363 418 10,300 -923 Descending FlightAware ADS-B
Thu 09:06:10 AM 40.2110 -74.9600 43° Northeast 323 372 10,000 -658 Descending FlightAware ADS-B
Thu 09:06:38 AM 40.2390 -74.9250 44° Northeast 311 358 9,500 -1,395 Descending FlightAware ADS-B
Thu 09:06:53 AM 40.2560 -74.9040 43° Northeast 311 358 9,000 -1,909 Descending FlightAware ADS-B
Thu 09:07:22 AM 40.2850 -74.8640 46° Northeast 314 361 8,100 -1,250 Descending FlightAware ADS-B
Thu 09:07:41 AM 40.3030 -74.8380 48° Northeast 302 348 8,000 -585 Descending FlightAware ADS-B
Thu 09:08:03 AM 40.3240 -74.8080 47° Northeast 299 344 7,700 -878 Descending FlightAware ADS-B
Thu 09:08:22 AM 40.3400 -74.7850 48° Northeast 299 344 7,400 -1,077 Descending FlightAware ADS-B
Thu 09:08:42 AM 40.3610 -74.7560 46° Northeast 298 343 7,000 -1,091 Descending FlightAware ADS-B
Thu 09:09:06 AM 40.3830 -74.7250 47° Northeast 295 339 6,600 -1,067 Descending FlightAware ADS-B
Thu 09:09:27 AM 40.4040 -74.6960 46° Northeast 294 338 6,200 -878 Descending FlightAware ADS-B
Thu 09:09:47 AM 40.4240 -74.6740 40° Northeast 283 326 6,000 -364 Descending FlightAware ADS-B
Thu 09:10:00 AM 40.4400 -74.6670 18° North 278 320 6,000  Level FlightAware ADS-B
Thu 09:10:20 AM 40.4650 -74.6600 12° North 278 320 6,000  Level FlightAware ADS-B
Thu 09:10:41 AM 40.4910 -74.6530 12° North 279 321 6,000  Level FlightAware ADS-B
Thu 09:10:56 AM 40.5110 -74.6480 11° North 279 321 6,000  Level FlightAware ADS-B
Thu 09:11:18 AM 40.5370 -74.6410 12° North 278 320 6,000  Level FlightAware ADS-B
Thu 09:11:37 AM 40.5630 -74.6340 12° North 278 320 6,000  Level FlightAware ADS-B
Thu 09:11:44 AM 40.5710 -74.6320 11° North 278 320 6,000  Level FlightAware ADS-B
Thu 09:12:28 AM 40.6200 -74.6190 11° North 278 320 6,000  Level FlightAware ADS-B
Thu 09:12:50 AM 40.6540 -74.6090 13° North 277 319 6,000  Level FlightAware ADS-B
Thu 09:13:02 AM 40.6680 -74.6060 North 277 319 6,000  Level FlightAware ADS-B
Thu 09:13:25 AM 40.6970 -74.5980 12° North 280 322 6,000  Level FlightAware ADS-B
Thu 09:13:53 AM 40.7362 -74.5875 11° North 283 326 6,000  Level FlightAware ADS-B
Thu 09:14:48 AM 40.8057 -74.5691 11° North 283 326 6,000  Level FlightAware ADS-B
Thu 09:15:03 AM 40.8251 -74.5639 11° North 284 327 6,000  Level FlightAware ADS-B
Thu 09:15:42 AM 40.8750 -74.5510 11° North 285 328 6,000  Level FlightAware ADS-B
Thu 09:15:58 AM 40.8940 -74.5440 16° North 296 341 6,000 -462 Level FlightAware ADS-B
Thu 09:16:08 AM 40.9068 -74.5327 34° Northeast 285 328 5,800 -1,000 Descending FlightAware ADS-B
Thu 09:16:16 AM 40.9138 -74.5215 50° Northeast 298 343 5,700 -1,091 Descending FlightAware ADS-B
Thu 09:16:19 AM 40.9160 -74.5165 60° Northeast 298 343 5,600 -1,714 Descending FlightAware ADS-B
Thu 09:16:23 AM 40.9183 -74.5102 64° Northeast 297 342 5,500 -1,091 Descending FlightAware ADS-B
Thu 09:16:30 AM 40.9223 -74.4978 67° East 297 342 5,400 -625 Descending FlightAware ADS-B
Thu 09:17:11 AM 40.9400 -74.4340 70° East 283 326 5,000 -400 Descending FlightAware ADS-B
Thu 09:17:30 AM 40.9410 -74.3970 88° East 283 326 5,000  Level FlightAware ADS-B
Thu 09:17:50 AM 40.9420 -74.3630 88° East 281 323 5,000  Level FlightAware ADS-B
Thu 09:18:07 AM 40.9430 -74.3320 88° East 286 329 5,000 -474 Level FlightAware ADS-B
Thu 09:18:28 AM 40.9443 -74.2959 87° East 288 331 4,700 -833 Descending FlightAware ADS-B
Thu 09:18:43 AM 40.9450 -74.2696 88° East 285 328 4,500 -1,000 Descending FlightAware ADS-B
Thu 09:18:58 AM 40.9457 -74.2427 88° East 282 325 4,200 -500 Descending FlightAware ADS-B
Thu 09:19:43 AM 40.9349 -74.1741 102° East 275 316 4,000 -245 Descending FlightAware ADS-B
Thu 09:19:47 AM 40.9319 -74.1700 134° Southeast 248 285 4,000  Level FlightAware ADS-B
Thu 09:19:53 AM 40.9264 -74.1634 138° Southeast 235 270 4,000  Level FlightAware ADS-B
Thu 09:20:11 AM 40.9130 -74.1465 136° Southeast 222 255 4,000  Level FlightAware ADS-B
Thu 09:20:27 AM 40.9020 -74.1323 136° Southeast 215 247 4,000 -207 Level FlightAware ADS-B
Thu 09:20:40 AM 40.8927 -74.1198 135° Southeast 204 235 3,900 -414 Descending FlightAware ADS-B
Thu 09:20:56 AM 40.8828 -74.1065 135° Southeast 194 223 3,800 -800 Descending FlightAware ADS-B
Thu 09:21:10 AM 40.8740 -74.0947 135° Southeast 192 221 3,500 -1,448 Descending FlightAware ADS-B
Thu 09:21:25 AM 40.8643 -74.0822 136° Southeast 194 223 3,100 -1,429 Descending FlightAware ADS-B
Thu 09:21:31 AM 40.8604 -74.0778 140° Southeast 199 229 3,000 -1,333 Descending FlightAware ADS-B
Thu 09:21:34 AM 40.8581 -74.0760 149° Southeast 200 230 2,900 -1,714 Descending FlightAware ADS-B
Thu 09:21:38 AM 40.8548 -74.0742 158° South 201 231 2,800 -1,500 Descending FlightAware ADS-B
Thu 09:21:42 AM 40.8515 -74.0731 166° South 200 230 2,700 -1,500 Descending FlightAware ADS-B
Thu 09:21:46 AM 40.8478 -74.0729 178° South 199 229 2,600 -750 Descending FlightAware ADS-B
Thu 09:21:50 AM 40.8446 -74.0734 187° South 192 221 2,600 -400 Level FlightAware ADS-B
Thu 09:22:01 AM 40.8348 -74.0760 191° South 185 213 2,500 -375 Descending FlightAware ADS-B
Thu 09:22:06 AM 40.8308 -74.0776 197° South 183 211 2,500  Level FlightAware ADS-B
Thu 09:22:09 AM 40.8284 -74.0787 199° South 182 209 2,500  Level FlightAware ADS-B
Thu 09:22:14 AM 40.8246 -74.0807 202° Southwest 179 206 2,500  Level FlightAware ADS-B
Thu 09:22:22 AM 40.8186 -74.0844 205° Southwest 179 206 2,500 -615 Level FlightAware ADS-B
Thu 09:22:53 AM 40.7957 -74.0992 206° Southwest 176 203 2,100 -750 Descending FlightAware ADS-B
Thu 09:23:02 AM 40.7890 -74.1034 205° Southwest 173 199 2,000 -857 Descending FlightAware ADS-B
Thu 09:23:14 AM 40.7806 -74.1087 206° Southwest 171 197 1,800 -750 Descending FlightAware ADS-B
Thu 09:23:26 AM 40.7719 -74.1143 206° Southwest 166 191 1,700 -857 Descending FlightAware ADS-B
Thu 09:23:42 AM 40.7615 -74.1207 205° Southwest 157 181 1,400 -938 Descending FlightAware ADS-B
Thu 09:23:58 AM 40.7515 -74.1272 206° Southwest 149 171 1,200 -750 Descending FlightAware ADS-B
Thu 09:24:14 AM 40.7417 -74.1334 206° Southwest 146 168 1,000 -833 Descending FlightAware ADS-B
Thu 09:24:34 AM 40.7293 -74.1415 206° Southwest 147 169 700 -346 Descending FlightAware ADS-B
Thu 09:25:06 AM 40.7130 -74.1510 204° Southwest 146 168 700 -818 Level FlightAware ADS-B
Thu 09:25:18 AM 40.7021 -74.1587 208° Southwest 147 169 100 -3,000 Descending FlightAware ADS-B

Login

Don't have an account? Register now (free) for customized features, flight alerts, and more!